Time;durP1;ratioP1;P1;durP2;ratioP2;P2;SDS_P1;SDS_P2;PMS_P1;PMS_P2;Temp;Humidity;BMP_temperature;BMP_pressure;BME280_temperature;BME280_humidity;BME280_pressure;Samples;Min_cycle;Max_cycle;Signal;HPM_P1;HPM_P2
2022/05/27 00:01:52;;;;;;;9.00;2.40;;;;;;;15.17;100.00;101666.31;5064078;28;20044;-81
2022/05/27 00:04:17;;;;;;;5.38;2.00;;;;;;;15.20;100.00;101670.66;5080603;28;20475;-81
2022/05/27 00:06:45;;;;;;;9.20;2.17;;;;;;;15.18;100.00;101672.69;5079525;28;20024;-82
2022/05/27 00:09:10;;;;;;;7.30;2.15;;;;;;;15.14;100.00;101666.56;5098076;28;20039;-81
2022/05/27 00:11:36;;;;;;;5.85;1.92;;;;;;;15.10;100.00;101643.00;5079906;28;20040;-81
2022/05/27 00:14:02;;;;;;;7.95;2.20;;;;;;;15.33;100.00;101657.59;5096201;28;20028;-83
2022/05/27 00:16:28;;;;;;;4.65;2.40;;;;;;;15.39;100.00;101659.78;5088411;28;20096;-81
2022/05/27 00:18:58;;;;;;;11.90;2.00;;;;;;;15.24;100.00;101653.72;5087481;28;20040;-82
2022/05/27 00:21:25;;;;;;;9.98;2.60;;;;;;;15.23;100.00;101660.28;5098478;28;20023;-81
2022/05/27 00:23:51;;;;;;;6.60;1.73;;;;;;;15.22;100.00;101644.72;5065183;28;20032;-82
2022/05/27 00:26:17;;;;;;;7.47;2.22;;;;;;;15.37;100.00;101649.91;5086638;28;20032;-83
2022/05/27 00:28:42;;;;;;;12.65;2.75;;;;;;;15.19;100.00;101647.72;5047640;28;20032;-81
2022/05/27 00:31:09;;;;;;;12.77;2.08;;;;;;;15.16;100.00;101644.38;5067677;28;20047;-81
2022/05/27 00:33:37;;;;;;;6.70;1.75;;;;;;;15.23;100.00;101640.97;5075812;28;20103;-81
2022/05/27 00:36:09;;;;;;;5.50;2.00;;;;;;;15.27;100.00;101638.81;5095258;28;20061;-81
2022/05/27 00:38:37;;;;;;;6.90;1.75;;;;;;;15.23;100.00;101627.16;5065576;28;20043;-82
2022/05/27 00:41:03;;;;;;;8.35;2.25;;;;;;;15.13;100.00;101641.88;5096674;28;20027;-81
2022/05/27 00:43:30;;;;;;;8.30;1.90;;;;;;;15.30;100.00;101648.69;5077502;28;20032;-80
2022/05/27 00:46:00;;;;;;;3.33;1.55;;;;;;;15.17;100.00;101640.63;5056817;28;20028;-81
2022/05/27 00:48:27;;;;;;;8.27;2.60;;;;;;;15.22;100.00;101646.59;5092904;28;20028;-81
2022/05/27 00:50:54;;;;;;;6.10;1.75;;;;;;;15.20;100.00;101640.31;5093125;28;20047;-82
2022/05/27 00:53:35;;;;;;;5.82;2.05;;;;;;;15.10;100.00;101640.22;5073457;28;20052;-81
2022/05/27 00:56:04;;;;;;;9.68;2.08;;;;;;;15.25;100.00;101647.22;5112015;28;20032;-82
2022/05/27 00:58:43;;;;;;;11.55;2.20;;;;;;;15.24;100.00;101644.59;5104886;28;20036;-81
2022/05/27 01:01:10;;;;;;;7.78;2.03;;;;;;;15.15;100.00;101640.75;5101110;28;20475;-82
2022/05/27 01:03:38;;;;;;;8.70;2.50;;;;;;;15.10;100.00;101631.97;5108004;28;20088;-80
2022/05/27 01:06:04;;;;;;;9.45;2.42;;;;;;;15.22;100.00;101639.19;5065800;28;20029;-81
2022/05/27 01:08:30;;;;;;;9.07;2.47;;;;;;;15.18;100.00;101632.22;5098822;28;20064;-81
2022/05/27 01:11:29;;;;;;;6.30;2.22;;;;;;;15.19;100.00;101633.94;5079900;28;20041;-81
2022/05/27 01:14:14;;;;;;;8.85;2.40;;;;;;;15.11;100.00;101630.09;5109394;28;20040;-81
2022/05/27 01:16:50;;;;;;;6.78;2.33;;;;;;;15.07;100.00;101624.84;5084664;28;20154;-83
2022/05/27 01:22:36;;;;;;;10.27;2.28;;;;;;;14.95;100.00;101625.88;5109158;28;20110;-81
2022/05/27 01:25:14;;;;;;;12.20;2.47;;;;;;;14.97;100.00;101618.38;5083070;28;20391;-81
2022/05/27 01:27:53;;;;;;;10.77;2.63;;;;;;;14.96;100.00;101624.88;5098975;28;20392;-81
2022/05/27 01:30:28;;;;;;;10.55;2.58;;;;;;;15.03;100.00;101614.19;5081874;28;20535;-81
2022/05/27 01:33:02;;;;;;;13.32;2.65;;;;;;;14.98;100.00;101616.47;5095790;28;20036;-81
2022/05/27 01:35:44;;;;;;;13.40;2.97;;;;;;;15.07;100.00;101626.75;5088309;28;20436;-80
2022/05/27 01:39:00;;;;;;;8.88;3.28;;;;;;;14.98;100.00;101630.28;5095189;28;20362;-81
2022/05/27 01:41:38;;;;;;;11.65;3.75;;;;;;;14.80;100.00;101618.94;5096639;28;20034;-80
2022/05/27 01:44:14;;;;;;;18.67;4.68;;;;;;;14.73;100.00;101629.59;5117417;28;20471;-81
2022/05/27 01:46:48;;;;;;;16.25;4.90;;;;;;;14.53;100.00;101631.25;5102747;28;20023;-82
2022/05/27 01:49:16;;;;;;;13.48;4.55;;;;;;;14.39;100.00;101631.53;5089855;28;20040;-82
2022/05/27 01:51:52;;;;;;;15.68;4.85;;;;;;;14.24;100.00;101619.88;5091417;28;20040;-81
2022/05/27 01:54:43;;;;;;;11.05;4.88;;;;;;;14.32;100.00;101622.88;5099063;28;20027;-82
2022/05/27 01:57:19;;;;;;;12.55;5.38;;;;;;;14.29;100.00;101624.00;5084449;28;20459;-82
2022/05/27 01:59:51;;;;;;;17.77;6.07;;;;;;;14.36;100.00;101626.25;5104456;28;20067;-82
2022/05/27 02:02:22;;;;;;;22.85;5.78;;;;;;;14.15;100.00;101633.41;5097906;28;20035;-82
2022/05/27 02:05:03;;;;;;;16.58;6.03;;;;;;;14.23;100.00;101623.63;5080248;28;20024;-82
2022/05/27 02:07:53;;;;;;;25.67;5.80;;;;;;;14.26;100.00;101627.00;5079864;28;20029;-81
2022/05/27 02:10:29;;;;;;;19.75;5.25;;;;;;;14.07;100.00;101626.75;5096410;28;20494;-83
2022/05/27 02:13:07;;;;;;;21.65;5.93;;;;;;;14.10;100.00;101618.25;5099961;28;20036;-83
2022/05/27 02:15:39;;;;;;;17.85;5.85;;;;;;;13.95;100.00;101612.13;5084901;28;20031;-83
2022/05/27 02:18:12;;;;;;;16.98;6.80;;;;;;;14.00;100.00;101626.38;5114613;27;20036;-83
2022/05/27 02:20:44;;;;;;;18.40;5.82;;;;;;;13.94;100.00;101615.91;5086647;28;20046;-82
2022/05/27 02:23:42;;;;;;;17.42;5.53;;;;;;;13.71;100.00;101615.00;5097384;28;20047;-82
2022/05/27 02:26:14;;;;;;;18.55;5.75;;;;;;;13.78;100.00;101624.50;5081330;28;20035;-81
2022/05/27 02:28:45;;;;;;;18.23;6.32;;;;;;;13.78;100.00;101621.75;5095428;28;20089;-82
2022/05/27 02:31:22;;;;;;;15.88;6.47;;;;;;;13.60;100.00;101611.22;5081686;28;20115;-82
2022/05/27 02:37:06;;;;;;;17.42;7.13;;;;;;;13.68;100.00;101610.63;5092095;28;20035;-82
2022/05/27 02:39:33;;;;;;;16.17;6.45;;;;;;;13.51;100.00;101614.72;5082203;28;20448;-82
2022/05/27 02:42:15;;;;;;;23.17;7.60;;;;;;;13.69;100.00;101608.72;5098198;28;20088;-82
2022/05/27 02:45:07;;;;;;;22.42;7.18;;;;;;;13.64;100.00;101613.72;5093670;28;20107;-82
2022/05/27 02:48:04;;;;;;;17.35;7.68;;;;;;;13.58;100.00;101609.59;5093679;28;20036;-83
2022/05/27 02:50:49;;;;;;;19.70;7.70;;;;;;;13.48;100.00;101623.22;5033203;28;20044;-82
2022/05/27 02:53:45;;;;;;;20.70;8.57;;;;;;;13.67;100.00;101655.63;5115021;27;20415;-80
2022/05/27 02:56:36;;;;;;;15.43;6.45;;;;;;;13.52;100.00;101652.22;5058655;28;20036;-82
2022/05/27 02:59:02;;;;;;;12.90;3.60;;;;;;;13.20;100.00;101651.97;5066203;28;20366;-81
2022/05/27 03:01:28;;;;;;;11.63;3.35;;;;;;;13.06;100.00;101645.66;5077921;28;20116;-81
2022/05/27 03:03:54;;;;;;;8.45;3.88;;;;;;;13.10;100.00;101649.06;5061982;28;20162;-82
2022/05/27 03:06:26;;;;;;;14.10;4.68;;;;;;;12.99;100.00;101654.50;5068023;28;20424;-80
2022/05/27 03:09:00;;;;;;;10.75;4.10;;;;;;;12.92;100.00;101656.84;5084977;28;20033;-80
2022/05/27 03:11:31;;;;;;;6.07;4.50;;;;;;;13.08;100.00;101650.16;5061510;28;20433;-82
2022/05/27 03:14:17;;;;;;;10.55;4.88;;;;;;;12.96;100.00;101646.50;5074153;28;20093;-81
2022/05/27 03:16:45;;;;;;;15.10;4.80;;;;;;;12.93;100.00;101647.59;5075854;28;20383;-81
2022/05/27 03:19:30;;;;;;;8.35;4.70;;;;;;;12.91;100.00;101652.34;5081329;28;20056;-80
2022/05/27 03:22:17;;;;;;;13.95;5.35;;;;;;;12.73;100.00;101648.25;5072097;28;20369;-80
2022/05/27 03:25:16;;;;;;;5.55;4.18;;;;;;;12.81;100.00;101648.53;5092505;28;20419;-81
2022/05/27 03:27:58;;;;;;;5.47;4.07;;;;;;;12.77;100.00;101647.00;5105331;28;20036;-80
2022/05/27 03:30:33;;;;;;;8.25;4.20;;;;;;;12.75;100.00;101641.63;5082818;28;20028;-80
2022/05/27 03:33:24;;;;;;;8.45;4.97;;;;;;;12.75;100.00;101641.63;5074783;28;20390;-81
2022/05/27 03:36:18;;;;;;;12.10;5.07;;;;;;;12.71;100.00;101642.88;5059813;28;20372;-80
2022/05/27 03:39:01;;;;;;;10.10;4.70;;;;;;;12.67;100.00;101642.22;5061988;28;20020;-79
2022/05/27 03:41:36;;;;;;;11.00;3.80;;;;;;;12.56;100.00;101633.91;5070888;28;20024;-80
2022/05/27 03:44:02;;;;;;;8.70;4.07;;;;;;;12.60;100.00;101640.91;5107669;28;20040;-81
2022/05/27 03:46:32;;;;;;;11.73;4.43;;;;;;;12.54;100.00;101646.88;5087508;28;20036;-80
2022/05/27 03:48:57;;;;;;;10.43;4.03;;;;;;;12.65;100.00;101646.94;5075903;28;20108;-80
2022/05/27 03:51:28;;;;;;;11.60;4.00;;;;;;;12.58;100.00;101648.41;5091403;28;20040;-81
2022/05/27 03:54:05;;;;;;;8.27;4.07;;;;;;;12.60;100.00;101646.41;5102748;28;20032;-81
2022/05/27 03:56:39;;;;;;;11.13;4.00;;;;;;;12.52;100.00;101651.59;5077952;28;20046;-81
2022/05/27 03:59:07;;;;;;;11.35;4.68;;;;;;;12.50;100.00;101645.34;5097188;28;20054;-81
2022/05/27 04:01:34;;;;;;;9.38;3.83;;;;;;;12.59;100.00;101650.19;5079175;28;20122;-81
2022/05/27 04:04:04;;;;;;;14.50;4.47;;;;;;;12.57;100.00;101646.63;5101310;28;20032;-79
2022/05/27 04:06:30;;;;;;;6.78;4.47;;;;;;;12.55;100.00;101640.38;5075624;28;20551;-81
2022/05/27 04:08:57;;;;;;;14.15;5.53;;;;;;;12.64;100.00;101647.06;5055421;28;20032;-80
2022/05/27 04:11:24;;;;;;;10.20;4.80;;;;;;;12.59;100.00;101643.78;5082972;28;20025;-82
2022/05/27 04:13:51;;;;;;;13.43;5.47;;;;;;;12.56;100.00;101649.50;5098403;28;20032;-80
2022/05/27 04:16:16;;;;;;;13.27;5.97;;;;;;;12.68;100.00;101646.72;5088800;28;20456;-80
2022/05/27 04:18:42;;;;;;;17.30;5.28;;;;;;;12.63;100.00;101648.94;5096643;28;20051;-81
2022/05/27 04:21:07;;;;;;;19.88;6.25;;;;;;;12.78;100.00;101646.91;5060979;28;20036;-80
2022/05/27 04:23:35;;;;;;;13.10;5.10;;;;;;;12.75;100.00;101644.38;5068936;28;20029;-83
2022/05/27 04:26:01;;;;;;;18.60;5.82;;;;;;;12.77;100.00;101647.00;5092112;28;20064;-81
2022/05/27 04:28:27;;;;;;;4.88;3.63;;;;;;;12.58;100.00;101642.03;5097221;28;20028;-82
2022/05/27 04:30:52;;;;;;;6.53;3.75;;;;;;;12.76;100.00;101650.78;5082029;28;20040;-83
2022/05/27 04:33:18;;;;;;;8.15;3.75;;;;;;;12.61;100.00;101648.19;5043382;28;20032;-81
2022/05/27 04:35:44;;;;;;;8.70;3.47;;;;;;;12.56;100.00;101644.00;5078715;28;20042;-78
2022/05/27 04:38:10;;;;;;;10.45;3.58;;;;;;;12.60;100.00;101640.91;5109471;28;20124;-81
2022/05/27 04:40:35;;;;;;;8.98;5.35;;;;;;;12.71;100.00;101637.38;5098619;28;20113;-82
2022/05/27 04:43:05;;;;;;;12.88;3.83;;;;;;;12.70;100.00;101632.84;5050412;28;20058;-82
2022/05/27 04:45:31;;;;;;;10.48;3.80;;;;;;;12.75;100.00;101638.00;5047224;28;20130;-83
2022/05/27 04:47:56;;;;;;;14.77;5.28;;;;;;;12.81;100.00;101640.31;5056385;28;20130;-80
2022/05/27 04:50:22;;;;;;;12.30;4.10;;;;;;;12.77;100.00;101633.28;5077245;28;20052;-81
2022/05/27 04:52:48;;;;;;;6.75;3.78;;;;;;;12.83;100.00;101643.81;5094828;28;20040;-79
2022/05/27 04:55:15;;;;;;;11.85;4.38;;;;;;;13.01;100.00;101647.88;5095097;28;20036;-80
2022/05/27 04:57:54;;;;;;;12.15;5.10;;;;;;;13.01;100.00;101644.28;5093462;28;20449;-79
2022/05/27 05:00:25;;;;;;;10.15;4.85;;;;;;;13.00;100.00;101645.25;5099431;28;20055;-79
2022/05/27 05:02:51;;;;;;;15.45;5.35;;;;;;;13.02;100.00;101637.78;5078138;28;20028;-81
2022/05/27 05:05:19;;;;;;;10.90;4.95;;;;;;;12.96;100.00;101646.50;5084130;28;20028;-79
2022/05/27 05:07:49;;;;;;;14.88;6.15;;;;;;;13.10;100.00;101643.56;5095677;28;20055;-80
2022/05/27 05:10:17;;;;;;;14.75;7.13;;;;;;;13.00;100.00;101646.16;5100817;28;20028;-80
2022/05/27 05:12:43;;;;;;;10.82;6.40;;;;;;;12.92;100.00;101644.97;5087700;28;20501;-80
2022/05/27 05:15:10;;;;;;;11.65;7.45;;;;;;;13.19;100.00;101651.09;5103069;28;20047;-80
2022/05/27 05:17:36;;;;;;;16.40;7.45;;;;;;;13.16;100.00;101651.31;5079332;28;20040;-80
2022/05/27 05:20:04;;;;;;;13.70;7.95;;;;;;;13.22;100.00;101650.84;5098402;28;20357;-80
2022/05/27 05:22:31;;;;;;;16.73;8.77;;;;;;;13.10;100.00;101651.81;5082533;28;20035;-80
2022/05/27 05:24:57;;;;;;;16.63;8.73;;;;;;;13.23;100.00;101651.72;5064663;28;20040;-79
2022/05/27 05:27:24;;;;;;;13.93;8.25;;;;;;;13.24;100.00;101651.59;5101472;28;20032;-80
2022/05/27 05:29:52;;;;;;;20.98;10.50;;;;;;;13.48;100.00;101658.97;5100216;28;20153;-79
2022/05/27 05:32:17;;;;;;;22.98;10.18;;;;;;;13.65;100.00;101660.38;5097342;28;20036;-80
2022/05/27 05:34:42;;;;;;;17.27;10.07;;;;;;;13.89;100.00;101656.69;5082524;28;20453;-79
2022/05/27 05:37:08;;;;;;;16.52;10.43;;;;;;;13.85;100.00;101663.44;5083547;28;20043;-79
2022/05/27 05:39:36;;;;;;;23.02;12.18;;;;;;;13.94;100.00;101665.47;5065023;28;20032;-79
2022/05/27 05:42:04;;;;;;;15.75;10.93;;;;;;;13.88;100.00;101666.81;5078860;28;20085;-80
2022/05/27 05:44:30;;;;;;;15.13;9.13;;;;;;;13.77;100.00;101675.94;5099293;28;20118;-80
2022/05/27 05:46:56;;;;;;;17.92;10.52;;;;;;;13.98;100.00;101672.44;5083273;28;20067;-80
2022/05/27 05:49:22;;;;;;;19.20;10.45;;;;;;;13.85;100.00;101674.44;5097486;28;20376;-79
2022/05/27 05:51:50;;;;;;;21.42;12.40;;;;;;;13.95;100.00;101669.94;5095641;28;20101;-80
2022/05/27 05:54:15;;;;;;;17.05;10.27;;;;;;;13.97;100.00;101673.47;5099630;28;20036;-80
2022/05/27 05:56:41;;;;;;;21.02;12.13;;;;;;;14.00;100.00;101675.94;5098300;28;20498;-80
2022/05/27 05:59:07;;;;;;;22.85;12.20;;;;;;;13.98;100.00;101677.97;5097862;28;20043;-80
2022/05/27 06:01:32;;;;;;;28.38;13.57;;;;;;;14.12;100.00;101676.88;5078845;28;20542;-80
2022/05/27 06:03:58;;;;;;;25.73;13.57;;;;;;;14.04;100.00;101682.97;5090306;28;20024;-80
2022/05/27 06:06:23;;;;;;;25.98;13.73;;;;;;;14.16;100.00;101679.22;5083620;28;20597;-78
2022/05/27 06:08:49;;;;;;;25.50;12.15;;;;;;;14.21;100.00;101681.59;5081751;28;20020;-79
2022/05/27 06:11:15;;;;;;;29.52;12.98;;;;;;;14.46;100.00;101674.06;5077298;28;20039;-78
2022/05/27 06:13:41;;;;;;;27.38;12.50;;;;;;;15.00;100.00;101686.16;5061712;28;20099;-80
2022/05/27 06:16:07;;;;;;;31.52;12.52;;;;;;;14.92;100.00;101678.56;5080283;28;20040;-80
2022/05/27 06:18:33;;;;;;;24.67;12.02;;;;;;;14.69;100.00;101680.47;5098204;28;20054;-80
2022/05/27 06:20:59;;;;;;;18.55;11.82;;;;;;;14.71;100.00;101686.75;5078904;28;20429;-79
2022/05/27 06:23:29;;;;;;;21.77;10.90;;;;;;;14.59;100.00;101684.97;5080130;28;20032;-80
2022/05/27 06:26:00;;;;;;;26.42;12.15;;;;;;;14.84;100.00;101690.22;5093520;28;20078;-79
2022/05/27 06:36:41;;;;;;;18.58;9.23;;;;;;;14.96;100.00;101695.72;5091904;28;20081;-79
2022/05/27 06:39:07;;;;;;;24.90;9.63;;;;;;;14.97;100.00;101691.94;5095223;28;20043;-80
2022/05/27 06:41:33;;;;;;;22.70;7.13;;;;;;;15.16;100.00;101700.41;5078693;28;20062;-80
2022/05/27 06:43:59;;;;;;;18.10;6.47;;;;;;;15.00;100.00;101692.56;5094047;28;20387;-80
2022/05/27 06:46:25;;;;;;;16.25;5.53;;;;;;;14.96;100.00;101702.09;5080478;28;20127;-79
2022/05/27 06:48:51;;;;;;;20.70;6.20;;;;;;;15.03;100.00;101703.31;5080855;28;20039;-79
2022/05/27 06:51:18;;;;;;;17.40;4.68;;;;;;;15.21;100.00;101698.13;5099798;27;20143;-79
2022/05/27 06:53:45;;;;;;;16.40;3.85;;;;;;;15.59;100.00;101704.09;5083880;28;20447;-79
2022/05/27 06:56:11;;;;;;;12.65;3.72;;;;;;;16.04;100.00;101698.34;5106352;28;20047;-78
2022/05/27 06:58:37;;;;;;;17.90;3.53;;;;;;;15.58;100.00;101706.00;5116319;28;20039;-80
2022/05/27 07:01:03;;;;;;;16.50;4.43;;;;;;;16.22;100.00;101715.19;5099698;28;20152;-80
2022/05/27 07:03:30;;;;;;;16.63;3.20;;;;;;;16.11;100.00;101707.84;5118287;28;20401;-81
2022/05/27 07:05:55;;;;;;;12.23;3.10;;;;;;;16.44;100.00;101711.34;5084106;28;20042;-81
2022/05/27 07:08:21;;;;;;;20.08;3.10;;;;;;;16.66;100.00;101718.56;5083318;28;20395;-80
2022/05/27 07:10:47;;;;;;;15.10;3.60;;;;;;;16.35;100.00;101715.81;5103165;28;20077;-80
2022/05/27 07:13:13;;;;;;;12.75;2.75;;;;;;;16.49;100.00;101719.22;5097587;28;20031;-79
2022/05/27 07:15:40;;;;;;;13.13;2.70;;;;;;;16.75;100.00;101722.38;5084661;27;20040;-80
2022/05/27 07:18:08;;;;;;;11.35;2.55;;;;;;;16.81;100.00;101721.81;5055853;28;20040;-79
2022/05/27 07:20:36;;;;;;;11.18;2.50;;;;;;;17.05;100.00;101726.13;5074583;28;20059;-79
2022/05/27 07:23:05;;;;;;;12.95;2.30;;;;;;;17.06;100.00;101731.53;5099496;28;20055;-80
2022/05/27 07:25:35;;;;;;;13.38;2.55;;;;;;;16.87;100.00;101725.94;5067304;28;20039;-79
2022/05/27 07:28:06;;;;;;;12.30;2.00;;;;;;;17.65;100.00;101723.28;5099807;28;20088;-79
2022/05/27 07:30:33;;;;;;;10.88;2.17;;;;;;;17.71;100.00;101719.03;5117505;27;20032;-79
2022/05/27 07:32:59;;;;;;;7.88;2.08;;;;;;;17.38;100.00;101727.66;5127688;27;20042;-79
2022/05/27 07:35:25;;;;;;;14.27;2.40;;;;;;;17.57;100.00;101726.75;5087643;27;20027;-80
2022/05/27 07:37:50;;;;;;;7.95;2.03;;;;;;;17.54;100.00;101732.59;5121768;27;20086;-79
2022/05/27 07:40:16;;;;;;;12.18;2.40;;;;;;;17.07;100.00;101730.50;5084384;28;20074;-79
2022/05/27 07:42:42;;;;;;;13.27;2.63;;;;;;;17.20;100.00;101735.78;5097092;28;20104;-79
2022/05/27 07:45:10;;;;;;;18.15;2.00;;;;;;;16.79;100.00;101725.72;5097752;28;20063;-79
2022/05/27 07:47:38;;;;;;;20.90;2.17;;;;;;;16.87;100.00;101718.53;5096873;28;20032;-78
2022/05/27 07:50:05;;;;;;;7.80;1.77;;;;;;;18.12;100.00;101725.28;5081119;28;20023;-79
2022/05/27 07:52:34;;;;;;;13.85;2.15;;;;;;;16.99;100.00;101723.97;5099770;28;20479;-79
2022/05/27 07:55:00;;;;;;;17.95;2.60;;;;;;;16.88;100.00;101708.34;5100910;28;20374;-79
2022/05/27 07:57:25;;;;;;;10.23;2.30;;;;;;;17.36;100.00;101714.97;5100087;28;20035;-79
2022/05/27 07:59:54;;;;;;;10.23;2.60;;;;;;;16.68;100.00;101723.97;5099269;28;20035;-79
2022/05/27 08:02:21;;;;;;;11.57;1.90;;;;;;;17.21;100.00;101715.38;5100057;28;20024;-79
2022/05/27 08:04:46;;;;;;;15.20;2.83;;;;;;;17.25;100.00;101721.53;5082148;28;20064;-80
2022/05/27 08:07:13;;;;;;;14.43;2.55;;;;;;;17.66;100.00;101724.13;5099142;28;20177;-79
2022/05/27 08:09:39;;;;;;;17.20;3.35;;;;;;;18.65;100.00;101724.66;5082935;28;20065;-80
2022/05/27 08:12:05;;;;;;;13.70;2.88;;;;;;;17.75;100.00;101732.44;5099959;28;20119;-80
2022/05/27 08:14:31;;;;;;;17.38;3.78;;;;;;;16.90;100.00;101731.19;5082634;28;20036;-80
2022/05/27 08:16:57;;;;;;;13.73;3.20;;;;;;;16.86;100.00;101719.53;5083991;28;20042;-78
2022/05/27 08:19:23;;;;;;;12.63;3.40;;;;;;;16.89;100.00;101726.69;5102088;28;20039;-79
2022/05/27 08:21:48;;;;;;;12.13;2.58;;;;;;;16.43;100.00;101728.06;5083813;28;20036;-79
2022/05/27 08:24:14;;;;;;;17.95;3.80;;;;;;;16.34;100.00;101729.78;5082681;28;20028;-78
2022/05/27 08:26:39;;;;;;;10.82;2.63;;;;;;;16.09;100.00;101722.81;5084549;28;20024;-79
2022/05/27 08:29:06;;;;;;;10.15;2.85;;;;;;;15.75;100.00;101734.03;5102070;28;20533;-79
2022/05/27 08:31:32;;;;;;;17.23;3.15;;;;;;;15.50;100.00;101749.97;5098431;28;20046;-80
2022/05/27 08:39:27;;;;;;;11.82;2.75;;;;;;;17.95;100.00;101754.63;5102761;28;20027;-79
2022/05/27 08:42:30;;;;;;;12.40;2.72;;;;;;;18.41;100.00;101755.69;5100108;28;20394;-80
2022/05/27 08:45:17;;;;;;;13.57;3.03;;;;;;;18.63;100.00;101739.72;5116972;28;20028;-78
2022/05/27 08:47:49;;;;;;;10.57;2.63;;;;;;;18.24;100.00;101737.94;5079008;28;20040;-79
2022/05/27 08:50:40;;;;;;;12.75;2.45;;;;;;;18.67;100.00;101732.81;5099236;28;20423;-79
2022/05/27 08:53:32;;;;;;;12.05;2.80;;;;;;;18.77;100.00;101739.19;5099072;28;20031;-79
2022/05/27 08:59:28;;;;;;;13.77;2.90;;;;;;;17.16;100.00;101745.38;5117543;28;20031;-79
2022/05/27 09:02:10;;;;;;;17.80;3.08;;;;;;;17.53;100.00;101739.16;5116319;28;20385;-79
2022/05/27 09:04:49;;;;;;;16.17;3.25;;;;;;;17.89;100.00;101738.56;5098634;28;20032;-80
2022/05/27 09:07:30;;;;;;;16.58;3.13;;;;;;;17.26;100.00;101749.03;5098776;28;20506;-79
2022/05/27 09:09:56;;;;;;;17.67;3.22;;;;;;;18.08;100.00;101755.19;5117827;28;20519;-78
2022/05/27 09:12:44;;;;;;;15.68;2.92;;;;;;;18.25;100.00;101741.56;5083134;28;20027;-80
2022/05/27 09:15:47;;;;;;;27.42;5.57;;;;;;;19.17;100.00;101743.53;5099825;28;20035;-79
2022/05/27 09:18:26;;;;;;;;;;;;;;;18.37;100.00;101740.38;5100866;28;20035;-79
2022/05/27 09:21:07;;;;;;;13.27;3.33;;;;;;;17.63;100.00;101747.47;5100264;28;19912;-79
2022/05/27 09:23:42;;;;;;;12.52;3.00;;;;;;;17.41;100.00;101754.16;5098770;28;20043;-79
2022/05/27 09:27:03;;;;;;;13.80;3.05;;;;;;;16.60;100.00;101748.69;5115508;28;20027;-78
2022/05/27 09:29:33;;;;;;;14.13;2.95;;;;;;;16.69;100.00;101761.66;5046515;28;20048;-80
2022/05/27 09:32:11;;;;;;;12.70;3.30;;;;;;;16.53;100.00;101760.28;5086008;28;20027;-79
2022/05/27 09:34:41;;;;;;;15.95;2.85;;;;;;;18.05;100.00;101774.00;5111646;28;20031;-78
2022/05/27 09:37:10;;;;;;;14.23;2.88;;;;;;;18.88;100.00;101763.13;5080867;28;20490;-79
2022/05/27 09:39:35;;;;;;;19.00;2.92;;;;;;;19.55;100.00;101757.31;5085092;28;20028;-79
2022/05/27 09:42:24;;;;;;;16.83;3.03;;;;;;;19.37;100.00;101755.38;5095741;28;20015;-79
2022/05/27 09:44:56;;;;;;;10.95;2.95;;;;;;;19.18;100.00;101756.38;5118560;28;20035;-78
2022/05/27 09:47:27;;;;;;;10.18;2.88;;;;;;;19.54;96.31;101761.97;5119784;28;20023;-78
2022/05/27 09:49:58;;;;;;;14.00;2.47;;;;;;;19.48;100.00;101762.63;5102041;28;20031;-79
2022/05/27 09:52:27;;;;;;;11.07;2.20;;;;;;;19.91;94.58;101760.97;5119942;28;20123;-79
2022/05/27 09:54:59;;;;;;;26.05;2.90;;;;;;;20.46;93.70;101768.13;5101914;28;20028;-79
2022/05/27 09:57:28;;;;;;;16.05;3.17;;;;;;;20.43;94.14;101774.03;5082285;28;20386;-78
2022/05/27 10:00:02;;;;;;;19.08;5.07;;;;;;;19.36;97.14;101769.41;5101093;28;20031;-78
2022/05/27 10:02:37;;;;;;;18.50;3.35;;;;;;;18.88;98.78;101768.69;5117276;28;20028;-77
2022/05/27 10:05:16;;;;;;;23.75;5.63;;;;;;;18.48;100.00;101770.72;5106886;28;20032;-79
2022/05/27 10:07:51;;;;;;;13.10;3.08;;;;;;;19.29;99.11;101774.72;5092416;28;20036;-78
2022/05/27 10:10:29;;;;;;;17.77;3.25;;;;;;;19.68;96.59;101771.66;5097862;28;20028;-78
2022/05/27 10:12:58;;;;;;;16.23;3.80;;;;;;;18.76;98.41;101784.63;5115160;28;20155;-78
2022/05/27 10:15:35;;;;;;;17.20;3.58;;;;;;;17.78;100.00;101778.38;5100970;28;20027;-79
2022/05/27 10:18:22;;;;;;;14.73;3.25;;;;;;;18.73;100.00;101784.94;5099470;28;20036;-78
2022/05/27 10:20:58;;;;;;;18.67;4.00;;;;;;;19.38;95.33;101779.34;5097999;28;20039;-77
2022/05/27 10:23:28;;;;;;;16.10;3.83;;;;;;;19.82;94.38;101782.25;5100380;28;20027;-79
2022/05/27 10:25:55;;;;;;;18.48;3.13;;;;;;;19.89;91.98;101781.59;5100826;28;20471;-79
2022/05/27 10:28:32;;;;;;;16.55;2.90;;;;;;;19.65;83.48;101781.19;5118350;28;20036;-78
2022/05/27 10:31:04;;;;;;;13.98;3.00;;;;;;;19.78;86.90;101774.41;5079508;27;20487;-79
2022/05/27 10:33:47;;;;;;;19.23;3.70;;;;;;;19.80;81.67;101773.19;5114000;27;20046;-77
2022/05/27 10:36:50;;;;;;;12.95;2.45;;;;;;;20.33;81.02;101778.81;5091856;28;20031;-79
2022/05/27 10:39:33;;;;;;;18.17;2.67;;;;;;;20.88;78.62;101778.50;5097776;28;20070;-77
2022/05/27 10:42:17;;;;;;;17.45;3.20;;;;;;;20.60;80.87;101777.78;5125265;27;20035;-77
2022/05/27 10:45:10;;;;;;;17.50;3.08;;;;;;;19.09;84.92;101787.84;5115286;28;20039;-79
2022/05/27 10:47:52;;;;;;;21.50;3.40;;;;;;;18.29;91.06;101788.25;5100844;28;20031;-78
2022/05/27 10:50:31;;;;;;;20.80;3.55;;;;;;;18.41;86.28;101797.28;5103984;28;20043;-78
2022/05/27 10:53:34;;;;;;;14.38;2.65;;;;;;;18.96;83.54;101788.22;5082286;28;20121;-77
2022/05/27 10:56:22;;;;;;;14.43;2.90;;;;;;;19.85;76.58;101775.50;5117718;27;20375;-77
2022/05/27 11:02:29;;;;;;;14.07;2.88;;;;;;;20.69;70.83;101779.63;5045248;28;20041;-78
2022/05/27 11:05:33;;;;;;;16.92;3.22;;;;;;;19.93;74.23;101774.69;5115270;28;20493;-78
2022/05/27 11:08:27;;;;;;;18.70;2.92;;;;;;;20.27;72.62;101783.16;5110640;28;20032;-78
2022/05/27 11:11:05;;;;;;;23.42;3.42;;;;;;;19.62;74.81;101784.28;5093810;28;20032;-77
2022/05/27 11:16:42;;;;;;;18.85;3.92;;;;;;;20.23;73.45;101781.69;5123913;27;20031;-78
2022/05/27 11:19:25;;;;;;;18.23;3.75;;;;;;;19.92;70.38;101796.06;5120780;27;20031;-78
2022/05/27 11:22:13;;;;;;;11.73;3.10;;;;;;;20.13;76.33;101794.84;5078407;28;20028;-79
2022/05/27 11:24:57;;;;;;;17.65;3.70;;;;;;;20.66;73.38;101785.53;5117311;28;20356;-80
2022/05/27 11:27:30;;;;;;;19.67;3.28;;;;;;;20.41;71.70;101786.34;5113919;28;20146;-78
2022/05/27 11:30:02;;;;;;;26.75;4.30;;;;;;;19.86;70.30;101791.16;5085442;28;20095;-79
2022/05/27 11:33:04;;;;;;;20.60;3.43;;;;;;;19.74;74.38;101789.59;5097789;28;20115;-77
2022/05/27 11:35:55;;;;;;;18.20;3.27;;;;;;;20.54;74.62;101795.13;5090992;28;20035;-80
2022/05/27 11:38:58;;;;;;;17.23;2.88;;;;;;;19.77;69.83;101790.16;5082614;28;20026;-79
2022/05/27 11:41:29;;;;;;;26.27;3.35;;;;;;;19.34;75.36;101797.34;5094888;28;20076;-79
2022/05/27 11:44:14;;;;;;;21.63;3.33;;;;;;;18.84;74.91;101800.53;5112715;28;20513;-79
2022/05/27 11:46:51;;;;;;;28.80;4.13;;;;;;;18.81;78.06;101801.69;5093756;28;20039;-77
2022/05/27 11:49:57;;;;;;;28.90;3.45;;;;;;;19.37;69.46;101787.84;5080828;28;20028;-78
2022/05/27 11:52:52;;;;;;;21.92;3.75;;;;;;;19.53;68.21;101807.47;5089459;28;20039;-78
2022/05/27 11:55:26;;;;;;;22.27;3.63;;;;;;;19.61;67.57;101792.75;5097573;28;20118;-78
2022/05/27 11:58:12;;;;;;;25.65;3.10;;;;;;;19.86;72.35;101795.81;5083486;28;20048;-79
2022/05/27 12:00:47;;;;;;;18.52;3.22;;;;;;;19.59;67.75;101792.06;5119437;28;20446;-79
2022/05/27 12:03:26;;;;;;;17.90;3.50;;;;;;;19.95;67.91;101792.94;5099899;28;20032;-78
2022/05/27 12:05:56;;;;;;;30.63;3.72;;;;;;;20.09;67.33;101779.53;5098092;28;20027;-77
2022/05/27 12:08:35;;;;;;;20.83;4.40;;;;;;;19.43;70.58;101792.75;5069127;28;20118;-78
2022/05/27 12:11:58;;;;;;;22.30;3.10;;;;;;;19.05;73.98;101803.94;5106406;28;20028;-80